createdAt,value
2019-06-10T00:00:42.033Z,14.47
2019-06-10T00:03:11.719Z,20.53
2019-06-10T00:05:41.438Z,17.87
2019-06-10T00:08:11.733Z,15.20
2019-06-10T00:10:42.105Z,17.37
2019-06-10T00:13:12.088Z,17.00
2019-06-10T00:15:41.480Z,20.67
2019-06-10T00:18:32.825Z,17.73
2019-06-10T00:20:41.226Z,19.20
2019-06-10T00:23:12.210Z,17.73
2019-06-10T00:25:41.485Z,22.73
2019-06-10T00:28:12.118Z,19.33
2019-06-10T00:30:41.392Z,14.13
2019-06-10T00:33:12.623Z,17.70
2019-06-10T00:35:41.365Z,21.57
2019-06-10T00:38:13.824Z,26.13
2019-06-10T00:40:41.653Z,22.93
2019-06-10T00:43:13.190Z,22.60
2019-06-10T00:45:41.249Z,23.03
2019-06-10T00:48:21.647Z,21.23
2019-06-10T00:50:41.519Z,17.60
2019-06-10T00:53:14.091Z,15.37
2019-06-10T00:55:41.736Z,20.90
2019-06-10T00:58:13.692Z,17.27
2019-06-10T01:00:41.792Z,17.33
2019-06-10T01:03:13.507Z,17.23
2019-06-10T01:05:42.280Z,17.60
2019-06-10T01:08:13.852Z,18.70
2019-06-10T01:10:43.873Z,17.90
2019-06-10T01:13:14.039Z,22.83
2019-06-10T01:15:42.818Z,21.77
2019-06-10T01:18:30.261Z,19.97
2019-06-10T01:20:41.825Z,22.47
2019-06-10T01:23:13.805Z,22.77
2019-06-10T01:25:42.203Z,15.73
2019-06-10T01:28:14.595Z,14.23
2019-06-10T01:30:41.985Z,15.20
2019-06-10T01:33:12.569Z,17.67
2019-06-10T01:35:41.681Z,11.97
2019-06-10T01:38:12.828Z,12.33
2019-06-10T01:40:42.331Z,15.43
2019-06-10T01:43:14.075Z,11.90
2019-06-10T01:45:42.273Z,16.00
2019-06-10T01:48:12.140Z,16.87
2019-06-10T01:50:41.613Z,13.90
2019-06-10T01:53:13.777Z,14.23
2019-06-10T01:55:41.805Z,15.43
2019-06-10T01:58:14.430Z,14.53
2019-06-10T02:01:01.305Z,13.23
2019-06-10T02:03:31.347Z,10.43
2019-06-10T02:06:01.453Z,15.27
2019-06-10T02:08:31.656Z,19.53
2019-06-10T02:11:01.240Z,19.57
2019-06-10T02:13:33.022Z,14.07
2019-06-10T02:16:05.526Z,13.60
2019-06-10T02:18:34.186Z,15.40
2019-06-10T02:21:02.827Z,15.10
2019-06-10T02:23:31.824Z,18.23
2019-06-10T02:26:01.388Z,15.67
2019-06-10T02:28:31.751Z,49.93
2019-06-10T02:31:03.472Z,15.50
2019-06-10T02:33:36.178Z,17.30
2019-06-10T02:36:04.261Z,14.80
2019-06-10T02:38:38.657Z,13.77
2019-06-10T02:41:04.338Z,15.80
2019-06-10T02:43:37.391Z,16.03
2019-06-10T02:46:05.024Z,18.23
2019-06-10T02:48:35.380Z,15.83
2019-06-10T02:51:06.340Z,23.57
2019-06-10T02:53:37.010Z,17.17
2019-06-10T02:56:07.207Z,16.47
2019-06-10T02:58:38.965Z,15.93
2019-06-10T03:01:06.702Z,20.13
2019-06-10T03:03:43.715Z,14.87
2019-06-10T03:06:08.510Z,21.40
2019-06-10T03:08:36.895Z,21.43
2019-06-10T03:11:06.018Z,25.87
2019-06-10T03:13:34.985Z,23.87
2019-06-10T03:16:13.013Z,20.97
2019-06-10T03:18:43.422Z,21.43
2019-06-10T03:21:12.439Z,29.03
2019-06-10T03:23:42.662Z,21.90
2019-06-10T03:26:12.340Z,26.77
2019-06-10T03:28:42.724Z,20.97
2019-06-10T03:31:15.128Z,22.57
2019-06-10T03:33:47.289Z,19.53
2019-06-10T03:36:12.613Z,17.13
2019-06-10T03:38:43.320Z,19.80
2019-06-10T03:41:12.490Z,20.90
2019-06-10T03:43:42.966Z,17.60
2019-06-10T03:46:13.655Z,16.43
2019-06-10T03:48:43.270Z,19.97
2019-06-10T03:51:12.750Z,18.67
2019-06-10T03:53:42.553Z,23.37
2019-06-10T03:56:12.848Z,24.03
2019-06-10T03:58:43.020Z,22.83
2019-06-10T04:01:12.435Z,28.83
2019-06-10T04:03:42.726Z,25.70
2019-06-10T04:06:12.889Z,28.50
2019-06-10T04:08:43.320Z,26.10
2019-06-10T04:11:12.397Z,25.83
2019-06-10T04:13:43.187Z,28.00
2019-06-10T04:16:13.026Z,29.53
2019-06-10T04:18:43.025Z,27.33
2019-06-10T04:21:12.886Z,25.83
2019-06-10T04:23:42.536Z,29.77
2019-06-10T04:26:12.697Z,20.33
2019-06-10T04:28:42.924Z,22.93
2019-06-10T04:31:13.062Z,18.87
2019-06-10T04:33:42.431Z,24.07
2019-06-10T04:36:13.213Z,17.00
2019-06-10T04:38:43.136Z,21.83
2019-06-10T04:41:12.695Z,20.27
2019-06-10T04:43:43.178Z,21.10
2019-06-10T04:46:12.682Z,23.60
2019-06-10T04:48:42.607Z,22.13
2019-06-10T04:51:12.925Z,25.17
2019-06-10T04:53:43.554Z,25.27
2019-06-10T04:56:12.562Z,32.03
2019-06-10T04:58:43.221Z,34.87
2019-06-10T05:01:12.272Z,30.80
2019-06-10T05:03:43.312Z,37.67
2019-06-10T05:06:12.391Z,34.33
2019-06-10T05:08:42.619Z,29.57
2019-06-10T05:11:12.760Z,29.80
2019-06-10T05:13:42.872Z,28.10
2019-06-10T05:16:12.515Z,36.20
2019-06-10T05:18:42.368Z,33.43
2019-06-10T05:21:13.033Z,33.30
2019-06-10T05:23:42.951Z,39.00
2019-06-10T05:26:13.320Z,32.83
2019-06-10T05:28:43.277Z,32.83
2019-06-10T05:31:12.915Z,20.87
2019-06-10T05:33:42.562Z,26.73
2019-06-10T05:36:13.210Z,18.80
2019-06-10T05:38:43.571Z,22.23
2019-06-10T05:41:13.345Z,11.27
2019-06-10T05:43:42.964Z,9.83
2019-06-10T05:46:13.480Z,9.60
2019-06-10T05:48:43.725Z,15.23
2019-06-10T05:51:12.685Z,16.97
2019-06-10T05:53:42.680Z,11.13
2019-06-10T05:56:12.915Z,15.73
2019-06-10T05:58:43.631Z,14.87
2019-06-10T06:01:13.206Z,13.53
2019-06-10T06:03:44.012Z,7.90
2019-06-10T06:06:12.777Z,16.33
2019-06-10T06:08:42.856Z,16.53
2019-06-10T06:11:12.638Z,16.57
2019-06-10T06:13:43.165Z,10.77
2019-06-10T06:16:12.778Z,17.73
2019-06-10T06:18:42.422Z,9.33
2019-06-10T06:21:25.487Z,8.63
2019-06-10T06:23:43.670Z,11.63
2019-06-10T06:26:16.559Z,9.13
2019-06-10T06:28:43.446Z,15.33
2019-06-10T06:31:12.654Z,12.17
2019-06-10T06:33:43.340Z,10.33
2019-06-10T06:36:12.707Z,12.73
2019-06-10T06:38:43.725Z,9.77
2019-06-10T06:41:13.662Z,8.47
2019-06-10T06:43:45.248Z,10.53
2019-06-10T06:46:12.972Z,13.37
2019-06-10T06:48:43.934Z,8.97
2019-06-10T06:51:12.978Z,6.77
2019-06-10T06:53:50.650Z,9.83
2019-06-10T06:56:12.762Z,9.50
2019-06-10T06:58:43.309Z,12.13
2019-06-10T07:01:14.661Z,12.07
2019-06-10T07:03:44.961Z,9.20
2019-06-10T07:06:17.027Z,8.33
2019-06-10T07:09:00.230Z,6.53
2019-06-10T07:11:18.930Z,13.23
2019-06-10T07:13:47.624Z,8.20
2019-06-10T07:16:16.360Z,8.90
2019-06-10T07:18:50.022Z,9.37
2019-06-10T07:21:15.358Z,15.23
2019-06-10T07:23:46.821Z,10.23
2019-06-10T07:26:14.450Z,13.87
2019-06-10T07:28:47.105Z,17.00
2019-06-10T07:31:23.216Z,12.17
2019-06-10T07:33:46.925Z,13.10
2019-06-10T07:36:14.194Z,5.73
2019-06-10T07:38:48.799Z,13.50
2019-06-10T07:41:14.826Z,8.00
2019-06-10T07:43:49.491Z,9.10
2019-06-10T07:46:13.869Z,14.17
2019-06-10T07:48:48.056Z,9.90
2019-06-10T07:51:13.338Z,12.90
2019-06-10T07:53:46.150Z,12.27
2019-06-10T07:56:13.032Z,7.80
2019-06-10T07:58:46.983Z,6.17
2019-06-10T08:01:13.159Z,10.73
2019-06-10T08:03:46.006Z,7.43
2019-06-10T08:06:12.871Z,9.47
2019-06-10T08:08:44.773Z,10.87
2019-06-10T08:11:13.669Z,7.03
2019-06-10T08:13:45.907Z,8.23
2019-06-10T08:16:13.327Z,4.80
2019-06-10T08:19:13.821Z,8.30
2019-06-10T08:21:12.499Z,8.13
2019-06-10T08:23:44.800Z,8.90
2019-06-10T08:26:12.695Z,7.63
2019-06-10T08:28:44.541Z,6.40
2019-06-10T08:31:12.521Z,8.43
2019-06-10T08:33:44.389Z,8.67
2019-06-10T08:36:13.510Z,7.47
2019-06-10T08:38:44.900Z,7.57
2019-06-10T08:41:12.489Z,4.73
2019-06-10T08:43:44.700Z,8.40
2019-06-10T08:46:13.158Z,5.17
2019-06-10T08:48:45.779Z,8.67
2019-06-10T08:51:12.674Z,14.37
2019-06-10T08:53:44.099Z,12.67
2019-06-10T08:56:13.022Z,11.90
2019-06-10T08:58:45.675Z,6.37
2019-06-10T09:01:13.444Z,9.53
2019-06-10T09:03:46.350Z,8.10
2019-06-10T09:06:13.442Z,6.27
2019-06-10T09:08:45.778Z,7.90
2019-06-10T09:11:13.076Z,8.80
2019-06-10T09:13:45.475Z,12.90
2019-06-10T09:16:18.581Z,10.93
2019-06-10T09:18:47.328Z,10.00
2019-06-10T09:21:13.154Z,6.00
2019-06-10T09:23:47.274Z,7.20
2019-06-10T09:26:14.057Z,6.50
2019-06-10T09:28:47.155Z,8.97
2019-06-10T09:31:13.991Z,11.03
2019-06-10T09:33:49.949Z,12.43
2019-06-10T09:36:13.517Z,11.47
2019-06-10T09:38:45.763Z,6.90
2019-06-10T09:41:14.126Z,5.20
2019-06-10T09:43:49.989Z,6.10
2019-06-10T09:46:15.035Z,7.20
2019-06-10T09:48:48.549Z,10.77
2019-06-10T09:51:14.755Z,5.43
2019-06-10T09:53:54.054Z,8.83
2019-06-10T09:56:13.753Z,13.60
2019-06-10T09:58:46.055Z,27.03
2019-06-10T10:01:13.503Z,25.77
2019-06-10T10:03:46.925Z,16.27
2019-06-10T10:06:15.609Z,11.97
2019-06-10T10:08:46.047Z,12.97
2019-06-10T10:11:13.969Z,10.33
2019-06-10T10:13:46.053Z,12.13
2019-06-10T10:16:13.310Z,8.00
2019-06-10T10:18:46.948Z,9.83
2019-06-10T10:21:13.057Z,9.10
2019-06-10T10:23:56.544Z,9.13
2019-06-10T10:26:14.231Z,12.13
2019-06-10T10:28:44.632Z,9.00
2019-06-10T10:31:13.381Z,10.20
2019-06-10T10:33:42.630Z,10.47
2019-06-10T10:36:14.081Z,7.27
2019-06-10T10:38:42.608Z,7.40
2019-06-10T10:41:13.252Z,7.57
2019-06-10T10:43:44.825Z,8.37
2019-06-10T10:46:13.962Z,7.60
2019-06-10T10:48:43.092Z,5.47
2019-06-10T10:51:12.984Z,6.30
2019-06-10T10:53:48.261Z,9.27
2019-06-10T10:56:13.064Z,7.43
2019-06-10T10:58:43.830Z,11.53
2019-06-10T11:01:15.007Z,14.10
2019-06-10T11:03:45.450Z,16.20
2019-06-10T11:06:13.910Z,11.60
2019-06-10T11:08:44.625Z,13.60
2019-06-10T11:11:14.116Z,10.43
2019-06-10T11:13:45.517Z,14.03
2019-06-10T11:16:15.427Z,8.83
2019-06-10T11:18:45.217Z,7.47
2019-06-10T11:21:14.023Z,14.00
2019-06-10T11:23:43.631Z,7.33
2019-06-10T11:26:13.211Z,7.37
2019-06-10T11:28:43.042Z,12.77
2019-06-10T11:31:13.793Z,8.30
2019-06-10T11:33:43.581Z,9.13
2019-06-10T11:36:13.503Z,8.77
2019-06-10T11:38:42.471Z,14.03
2019-06-10T11:41:13.432Z,11.57
2019-06-10T11:43:42.952Z,13.63
2019-06-10T11:46:13.099Z,16.53
2019-06-10T11:48:43.524Z,9.87
2019-06-10T11:51:13.405Z,7.50
2019-06-10T11:53:44.069Z,8.30
2019-06-10T11:56:13.233Z,12.07
2019-06-10T11:58:42.821Z,10.80
2019-06-10T12:01:13.124Z,10.37
2019-06-10T12:03:43.190Z,9.27
2019-06-10T12:06:13.576Z,8.77
2019-06-10T12:08:43.452Z,11.57
2019-06-10T12:11:12.921Z,13.60
2019-06-10T12:13:42.921Z,9.20
2019-06-10T12:17:05.817Z,11.53
2019-06-10T12:18:42.798Z,7.83
2019-06-10T12:21:13.234Z,7.03
2019-06-10T12:23:43.472Z,7.73
2019-06-10T12:26:12.394Z,9.73
2019-06-10T12:28:43.208Z,10.60
2019-06-10T12:31:13.538Z,9.43
2019-06-10T12:33:42.244Z,10.60
2019-06-10T12:36:12.803Z,10.27
2019-06-10T12:38:43.422Z,10.73
2019-06-10T12:41:13.914Z,8.33
2019-06-10T12:43:43.349Z,10.80
2019-06-10T12:46:12.952Z,7.97
2019-06-10T12:48:42.563Z,13.97
2019-06-10T12:51:13.617Z,8.93
2019-06-10T12:53:43.234Z,7.33
2019-06-10T12:56:14.925Z,14.90
2019-06-10T12:58:43.395Z,8.03
2019-06-10T13:01:12.637Z,6.30
2019-06-10T13:03:43.751Z,10.63
2019-06-10T13:06:13.075Z,10.90
2019-06-10T13:08:43.685Z,9.50
2019-06-10T13:11:14.965Z,13.67
2019-06-10T13:13:44.055Z,13.80
2019-06-10T13:16:14.277Z,9.17
2019-06-10T13:18:43.284Z,10.53
2019-06-10T13:21:16.855Z,13.27
2019-06-10T13:23:43.135Z,12.33
2019-06-10T13:26:15.971Z,9.17
2019-06-10T13:28:44.320Z,10.47
2019-06-10T13:31:14.010Z,12.83
2019-06-10T13:33:43.241Z,11.77
2019-06-10T13:36:12.714Z,21.70
2019-06-10T13:38:42.870Z,23.17
2019-06-10T13:41:11.771Z,20.17
2019-06-10T13:43:43.210Z,18.17
2019-06-10T13:46:11.123Z,13.67
2019-06-10T13:48:39.924Z,18.90
2019-06-10T13:51:11.884Z,17.47
2019-06-10T13:53:39.025Z,14.97
2019-06-10T13:56:31.991Z,17.13
2019-06-10T13:58:38.025Z,10.67
2019-06-10T14:01:10.061Z,48.43
2019-06-10T14:03:37.123Z,15.30
2019-06-10T14:06:21.185Z,21.60
2019-06-10T14:08:36.705Z,16.87
2019-06-10T14:11:07.591Z,13.03
2019-06-10T14:13:35.694Z,19.20
2019-06-10T14:16:05.595Z,13.77
2019-06-10T14:18:35.171Z,17.27
2019-06-10T14:21:07.938Z,15.70
2019-06-10T14:23:34.957Z,15.10
2019-06-10T14:26:05.928Z,13.43
2019-06-10T14:28:40.636Z,12.77
2019-06-10T14:31:24.233Z,16.47
2019-06-10T14:33:34.833Z,19.70
2019-06-10T14:36:05.451Z,17.23
2019-06-10T14:38:34.036Z,15.67
2019-06-10T14:41:04.768Z,25.90
2019-06-10T14:43:33.454Z,29.07
2019-06-10T14:46:02.032Z,17.73
2019-06-10T14:48:33.516Z,22.17
2019-06-10T14:51:03.319Z,17.60
2019-06-10T14:53:33.744Z,21.00
2019-06-10T14:56:03.858Z,12.40
2019-06-10T14:58:32.479Z,15.33
2019-06-10T15:01:04.302Z,11.37
2019-06-10T15:03:32.772Z,10.13
2019-06-10T15:06:03.166Z,12.73
2019-06-10T15:08:32.345Z,12.90
2019-06-10T15:11:01.168Z,9.73
2019-06-10T15:13:32.533Z,17.30
2019-06-10T15:16:04.292Z,17.30
2019-06-10T15:18:33.020Z,11.93
2019-06-10T15:21:02.780Z,8.03
2019-06-10T15:23:32.428Z,21.17
2019-06-10T15:26:02.817Z,17.97
2019-06-10T15:28:31.779Z,10.87
2019-06-10T15:31:02.795Z,11.10
2019-06-10T15:33:32.679Z,13.13
2019-06-10T15:36:02.325Z,18.30
2019-06-10T15:38:32.770Z,11.83
2019-06-10T15:41:01.715Z,18.33
2019-06-10T15:43:32.877Z,13.23
2019-06-10T15:46:03.167Z,14.23
2019-06-10T15:48:31.300Z,10.70
2019-06-10T15:50:59.951Z,16.43
2019-06-10T15:53:28.591Z,10.53
2019-06-10T15:56:22.438Z,18.53
2019-06-10T15:58:27.606Z,22.13
2019-06-10T16:00:56.241Z,33.10
2019-06-10T16:03:25.767Z,14.43
2019-06-10T16:05:54.536Z,15.07
2019-06-10T16:08:23.121Z,20.57
2019-06-10T16:10:53.150Z,9.83
2019-06-10T16:13:25.551Z,13.27
2019-06-10T16:15:53.421Z,13.93
2019-06-10T16:18:26.038Z,17.33
2019-06-10T16:20:53.153Z,11.80
2019-06-10T16:23:24.504Z,12.27
2019-06-10T16:25:53.482Z,18.13
2019-06-10T16:28:23.391Z,10.90
2019-06-10T16:30:53.601Z,17.70
2019-06-10T16:33:27.277Z,20.27
2019-06-10T16:35:53.120Z,31.13
2019-06-10T16:38:24.156Z,23.73
2019-06-10T16:40:53.765Z,20.03
2019-06-10T16:43:24.429Z,24.37
2019-06-10T16:45:53.058Z,27.27
2019-06-10T16:48:22.202Z,20.63
2019-06-10T16:50:54.324Z,25.63
2019-06-10T16:53:26.729Z,23.03
2019-06-10T16:55:53.818Z,27.27
2019-06-10T16:58:25.359Z,22.07
2019-06-10T17:00:52.913Z,20.20
2019-06-10T17:03:25.077Z,22.20
2019-06-10T17:05:53.330Z,24.47
2019-06-10T17:08:24.933Z,18.53
2019-06-10T17:10:52.797Z,24.43
2019-06-10T17:13:25.250Z,23.87
2019-06-10T17:15:53.940Z,17.90
2019-06-10T17:18:23.583Z,25.10
2019-06-10T17:20:53.646Z,13.60
2019-06-10T17:23:26.674Z,16.73
2019-06-10T17:25:56.163Z,12.97
2019-06-10T17:28:29.766Z,22.57
2019-06-10T17:30:57.286Z,18.63
2019-06-10T17:33:27.799Z,15.50
2019-06-10T17:35:57.078Z,17.37
2019-06-10T17:38:26.883Z,16.33
2019-06-10T17:40:55.629Z,16.70
2019-06-10T17:43:25.211Z,62.87
2019-06-10T17:45:53.984Z,20.13
2019-06-10T17:48:33.776Z,29.84
2019-06-10T17:51:02.645Z,20.93
2019-06-10T17:53:34.711Z,18.90
2019-06-10T17:56:03.324Z,25.30
2019-06-10T17:58:48.770Z,20.83
2019-06-10T18:01:02.649Z,28.43
2019-06-10T18:03:31.450Z,29.93
2019-06-10T18:06:02.563Z,28.33
2019-06-10T18:08:32.337Z,18.03
2019-06-10T18:11:03.075Z,20.53
2019-06-10T18:13:34.697Z,26.37
2019-06-10T18:16:03.373Z,21.03
2019-06-10T18:18:35.648Z,23.03
2019-06-10T18:21:03.372Z,99.90
2019-06-10T18:23:35.061Z,35.40
2019-06-10T18:26:03.871Z,34.43
2019-06-10T18:28:45.528Z,29.13
2019-06-10T18:31:02.898Z,34.73
2019-06-10T18:33:34.511Z,29.40
2019-06-10T18:36:02.038Z,42.43
2019-06-10T18:38:33.945Z,35.37
2019-06-10T18:41:03.142Z,27.43
2019-06-10T18:43:32.561Z,28.73
2019-06-10T18:46:03.515Z,34.87
2019-06-10T18:48:36.012Z,26.23
2019-06-10T18:51:02.699Z,24.47
2019-06-10T18:53:34.487Z,25.67
2019-06-10T18:56:01.758Z,33.47
2019-06-10T18:58:33.003Z,29.67
2019-06-10T19:01:07.204Z,28.80
2019-06-10T19:03:34.616Z,28.93
2019-06-10T19:06:01.806Z,33.23
2019-06-10T19:08:33.704Z,32.97
2019-06-10T19:11:02.464Z,34.30
2019-06-10T19:13:34.382Z,30.93
2019-06-10T19:16:03.298Z,39.40
2019-06-10T19:18:32.035Z,29.13
2019-06-10T19:21:04.306Z,30.37
2019-06-10T19:23:34.736Z,32.40
2019-06-10T19:26:02.956Z,31.87
2019-06-10T19:28:33.861Z,27.50
2019-06-10T19:31:02.454Z,37.47
2019-06-10T19:33:34.110Z,31.13
2019-06-10T19:36:02.259Z,29.60
2019-06-10T19:38:32.457Z,23.03
2019-06-10T19:41:02.729Z,29.00
2019-06-10T19:43:34.489Z,29.83
2019-06-10T19:46:04.709Z,25.43
2019-06-10T19:48:37.718Z,25.10
2019-06-10T19:51:03.713Z,30.33
2019-06-10T19:53:33.082Z,25.07
2019-06-10T19:56:02.812Z,30.33
2019-06-10T19:58:32.302Z,27.93
2019-06-10T20:01:01.164Z,33.17
2019-06-10T20:03:29.797Z,25.30
2019-06-10T20:05:58.430Z,24.77
2019-06-10T20:08:27.119Z,28.80
2019-06-10T20:11:03.456Z,28.40
2019-06-10T20:13:32.560Z,32.47
2019-06-10T20:16:03.024Z,40.03
2019-06-10T20:18:33.244Z,26.00
2019-06-10T20:21:02.738Z,26.80
2019-06-10T20:23:33.299Z,27.40
2019-06-10T20:26:02.252Z,30.47
2019-06-10T20:28:32.166Z,27.57
2019-06-10T20:31:00.965Z,26.20
2019-06-10T20:33:37.083Z,24.90
2019-06-10T20:36:07.416Z,20.27
2019-06-10T20:38:35.502Z,36.30
2019-06-10T20:41:05.281Z,19.07
2019-06-10T20:43:33.951Z,25.13
2019-06-10T20:46:05.785Z,20.83
2019-06-10T20:48:33.482Z,20.40
2019-06-10T20:51:02.990Z,19.20
2019-06-10T20:53:33.716Z,18.27
2019-06-10T20:56:03.889Z,10.83
2019-06-10T20:58:33.199Z,18.83
2019-06-10T21:01:04.583Z,13.40
2019-06-10T21:03:32.561Z,13.17
2019-06-10T21:06:03.648Z,10.87
2019-06-10T21:08:33.985Z,11.07
2019-06-10T21:11:03.077Z,17.27
2019-06-10T21:13:32.935Z,15.87
2019-06-10T21:16:03.824Z,15.00
2019-06-10T21:18:33.137Z,13.47
2019-06-10T21:21:01.973Z,11.83
2019-06-10T21:23:30.645Z,18.83
2019-06-10T21:25:59.265Z,16.73
2019-06-10T21:28:27.914Z,14.93
2019-06-10T21:30:58.876Z,17.90
2019-06-10T21:33:26.909Z,14.53
2019-06-10T21:35:55.565Z,11.80
2019-06-10T21:38:24.279Z,13.90
2019-06-10T21:40:54.217Z,17.30
2019-06-10T21:43:22.975Z,19.90
2019-06-10T21:45:57.414Z,19.43
2019-06-10T21:48:23.042Z,14.33
2019-06-10T21:50:55.613Z,16.83
2019-06-10T21:53:22.487Z,21.00
2019-06-10T21:55:53.543Z,18.17
2019-06-10T21:58:22.536Z,19.80
2019-06-10T22:01:03.440Z,15.30
2019-06-10T22:03:23.467Z,13.03
2019-06-10T22:05:53.680Z,20.17
2019-06-10T22:08:22.414Z,17.53
2019-06-10T22:10:54.634Z,20.20
2019-06-10T22:13:22.382Z,19.27
2019-06-10T22:15:54.790Z,21.30
2019-06-10T22:18:22.869Z,20.20
2019-06-10T22:20:56.066Z,20.80
2019-06-10T22:23:23.268Z,19.67
2019-06-10T22:25:55.666Z,20.07
2019-06-10T22:28:22.598Z,17.03
2019-06-10T22:30:55.646Z,17.60
2019-06-10T22:33:22.595Z,17.13
2019-06-10T22:35:55.389Z,12.87
2019-06-10T22:38:22.285Z,19.03
2019-06-10T22:40:53.645Z,18.10
2019-06-10T22:43:23.506Z,15.90
2019-06-10T22:45:54.162Z,19.43
2019-06-10T22:48:22.647Z,20.47
2019-06-10T22:50:51.355Z,18.03
2019-06-10T22:53:22.978Z,13.53
2019-06-10T22:55:53.030Z,12.33
2019-06-10T22:58:23.634Z,12.43
2019-06-10T23:00:53.199Z,14.60
2019-06-10T23:03:21.984Z,14.67
2019-06-10T23:05:50.769Z,13.97
2019-06-10T23:08:19.455Z,17.67
2019-06-10T23:10:48.516Z,11.13
2019-06-10T23:13:17.321Z,18.20
2019-06-10T23:15:45.882Z,15.63
2019-06-10T23:18:14.679Z,11.73
2019-06-10T23:20:43.329Z,14.53
2019-06-10T23:23:12.931Z,12.97
2019-06-10T23:25:42.933Z,15.87
2019-06-10T23:28:12.971Z,14.13
2019-06-10T23:30:42.625Z,16.00
2019-06-10T23:33:12.594Z,9.33
2019-06-10T23:35:43.162Z,14.30
2019-06-10T23:38:13.265Z,10.30
2019-06-10T23:40:42.970Z,10.97
2019-06-10T23:43:13.177Z,9.00
2019-06-10T23:45:42.510Z,9.73
2019-06-10T23:48:13.355Z,10.00
2019-06-10T23:50:43.694Z,13.07
2019-06-10T23:53:13.109Z,12.60
2019-06-10T23:55:42.749Z,11.77
2019-06-10T23:58:12.875Z,10.73
